sensor_id;sensor_type;location;lat;lon;timestamp;temperature;humidity
3842;DHT22;1936;47.074;15.336;2023-10-13T00:01:24;11.20;99.90
3842;DHT22;1936;47.074;15.336;2023-10-13T00:03:28;11.20;99.90
3842;DHT22;1936;47.074;15.336;2023-10-13T00:05:34;11.10;99.90
3842;DHT22;1936;47.074;15.336;2023-10-13T00:07:37;11.20;99.90
3842;DHT22;1936;47.074;15.336;2023-10-13T00:09:42;11.20;99.90
3842;DHT22;1936;47.074;15.336;2023-10-13T00:11:46;11.20;99.90
3842;DHT22;1936;47.074;15.336;2023-10-13T00:13:49;11.20;99.90
3842;DHT22;1936;47.074;15.336;2023-10-13T00:15:53;11.20;99.90
3842;DHT22;1936;47.074;15.336;2023-10-13T00:18:00;11.10;99.90
3842;DHT22;1936;47.074;15.336;2023-10-13T00:20:07;11.10;99.90
3842;DHT22;1936;47.074;15.336;2023-10-13T00:22:14;11.10;99.90
3842;DHT22;1936;47.074;15.336;2023-10-13T00:24:19;11.00;99.90
3842;DHT22;1936;47.074;15.336;2023-10-13T00:26:29;11.00;99.90
3842;DHT22;1936;47.074;15.336;2023-10-13T00:28:32;10.90;99.90
3842;DHT22;1936;47.074;15.336;2023-10-13T00:30:45;10.90;99.90
3842;DHT22;1936;47.074;15.336;2023-10-13T00:32:53;10.80;99.90
3842;DHT22;1936;47.074;15.336;2023-10-13T00:34:57;10.80;99.90
3842;DHT22;1936;47.074;15.336;2023-10-13T00:37:00;10.90;99.90
3842;DHT22;1936;47.074;15.336;2023-10-13T00:39:20;10.80;99.90
3842;DHT22;1936;47.074;15.336;2023-10-13T00:41:26;10.80;99.90
3842;DHT22;1936;47.074;15.336;2023-10-13T00:43:52;11.00;99.90
3842;DHT22;1936;47.074;15.336;2023-10-13T00:46:07;10.90;99.90
3842;DHT22;1936;47.074;15.336;2023-10-13T00:48:11;10.90;99.90
3842;DHT22;1936;47.074;15.336;2023-10-13T00:50:18;10.90;99.90
3842;DHT22;1936;47.074;15.336;2023-10-13T00:52:20;10.80;99.90
3842;DHT22;1936;47.074;15.336;2023-10-13T00:54:24;10.90;99.90
3842;DHT22;1936;47.074;15.336;2023-10-13T00:56:31;11.00;99.90
3842;DHT22;1936;47.074;15.336;2023-10-13T00:58:35;11.00;99.90
3842;DHT22;1936;47.074;15.336;2023-10-13T01:00:37;11.00;99.90
3842;DHT22;1936;47.074;15.336;2023-10-13T01:02:49;11.00;99.90
3842;DHT22;1936;47.074;15.336;2023-10-13T01:04:58;11.00;99.90
3842;DHT22;1936;47.074;15.336;2023-10-13T01:07:01;10.90;99.90
3842;DHT22;1936;47.074;15.336;2023-10-13T01:09:05;10.90;99.90
3842;DHT22;1936;47.074;15.336;2023-10-13T01:11:15;10.90;99.90
3842;DHT22;1936;47.074;15.336;2023-10-13T01:13:19;10.80;99.90
3842;DHT22;1936;47.074;15.336;2023-10-13T01:15:24;10.80;99.90
3842;DHT22;1936;47.074;15.336;2023-10-13T01:17:31;10.90;99.90
3842;DHT22;1936;47.074;15.336;2023-10-13T01:19:36;10.90;99.90
3842;DHT22;1936;47.074;15.336;2023-10-13T01:21:40;10.90;99.90
3842;DHT22;1936;47.074;15.336;2023-10-13T01:23:48;10.90;99.90
3842;DHT22;1936;47.074;15.336;2023-10-13T01:25:53;10.90;99.90
3842;DHT22;1936;47.074;15.336;2023-10-13T01:27:57;10.90;99.90
3842;DHT22;1936;47.074;15.336;2023-10-13T01:30:01;11.00;99.90
3842;DHT22;1936;47.074;15.336;2023-10-13T01:32:11;11.00;99.90
3842;DHT22;1936;47.074;15.336;2023-10-13T01:34:15;11.00;99.90
3842;DHT22;1936;47.074;15.336;2023-10-13T01:36:25;10.90;99.90
3842;DHT22;1936;47.074;15.336;2023-10-13T01:38:28;10.90;99.90
3842;DHT22;1936;47.074;15.336;2023-10-13T01:40:37;10.90;99.90
3842;DHT22;1936;47.074;15.336;2023-10-13T01:42:40;10.90;99.90
3842;DHT22;1936;47.074;15.336;2023-10-13T01:44:43;10.90;99.90
3842;DHT22;1936;47.074;15.336;2023-10-13T01:46:46;10.80;99.90
3842;DHT22;1936;47.074;15.336;2023-10-13T01:48:50;10.80;99.90
3842;DHT22;1936;47.074;15.336;2023-10-13T01:50:56;10.80;99.90
3842;DHT22;1936;47.074;15.336;2023-10-13T01:53:02;10.80;99.90
3842;DHT22;1936;47.074;15.336;2023-10-13T01:55:14;10.80;99.90
3842;DHT22;1936;47.074;15.336;2023-10-13T01:57:19;10.80;99.90
3842;DHT22;1936;47.074;15.336;2023-10-13T01:59:22;10.80;99.90
3842;DHT22;1936;47.074;15.336;2023-10-13T02:01:33;10.70;99.90
3842;DHT22;1936;47.074;15.336;2023-10-13T02:03:36;10.80;99.90
3842;DHT22;1936;47.074;15.336;2023-10-13T02:05:45;10.80;99.90
3842;DHT22;1936;47.074;15.336;2023-10-13T02:07:49;10.90;99.90
3842;DHT22;1936;47.074;15.336;2023-10-13T02:09:53;10.90;99.90
3842;DHT22;1936;47.074;15.336;2023-10-13T02:11:56;11.00;99.90
3842;DHT22;1936;47.074;15.336;2023-10-13T02:14:01;11.00;99.90
3842;DHT22;1936;47.074;15.336;2023-10-13T02:16:04;10.90;99.90
3842;DHT22;1936;47.074;15.336;2023-10-13T02:18:09;11.00;99.90
3842;DHT22;1936;47.074;15.336;2023-10-13T02:20:12;11.10;99.90
3842;DHT22;1936;47.074;15.336;2023-10-13T02:22:17;11.40;99.90
3842;DHT22;1936;47.074;15.336;2023-10-13T02:24:28;11.70;99.90
3842;DHT22;1936;47.074;15.336;2023-10-13T02:26:33;11.80;99.90
3842;DHT22;1936;47.074;15.336;2023-10-13T02:28:41;11.80;99.90
3842;DHT22;1936;47.074;15.336;2023-10-13T02:30:48;11.80;99.90
3842;DHT22;1936;47.074;15.336;2023-10-13T02:32:52;12.00;99.90
3842;DHT22;1936;47.074;15.336;2023-10-13T02:34:57;12.00;99.90
3842;DHT22;1936;47.074;15.336;2023-10-13T02:37:08;12.10;99.90
3842;DHT22;1936;47.074;15.336;2023-10-13T02:39:12;12.20;99.90
3842;DHT22;1936;47.074;15.336;2023-10-13T02:41:17;12.40;99.90
3842;DHT22;1936;47.074;15.336;2023-10-13T02:43:27;12.80;99.90
3842;DHT22;1936;47.074;15.336;2023-10-13T02:45:35;12.70;99.90
3842;DHT22;1936;47.074;15.336;2023-10-13T02:47:41;12.40;99.90
3842;DHT22;1936;47.074;15.336;2023-10-13T02:49:45;12.30;99.90
3842;DHT22;1936;47.074;15.336;2023-10-13T02:51:50;12.50;99.90
3842;DHT22;1936;47.074;15.336;2023-10-13T02:53:54;12.50;99.90
3842;DHT22;1936;47.074;15.336;2023-10-13T02:56:04;12.90;99.90
3842;DHT22;1936;47.074;15.336;2023-10-13T02:58:07;13.10;99.90
3842;DHT22;1936;47.074;15.336;2023-10-13T03:00:12;13.00;99.90
3842;DHT22;1936;47.074;15.336;2023-10-13T03:02:15;13.00;99.90
3842;DHT22;1936;47.074;15.336;2023-10-13T03:04:27;13.00;99.90
3842;DHT22;1936;47.074;15.336;2023-10-13T03:06:30;12.90;99.90
3842;DHT22;1936;47.074;15.336;2023-10-13T03:08:36;12.90;99.90
3842;DHT22;1936;47.074;15.336;2023-10-13T03:10:39;12.90;99.90
3842;DHT22;1936;47.074;15.336;2023-10-13T03:12:49;13.00;99.90
3842;DHT22;1936;47.074;15.336;2023-10-13T03:14:53;13.20;99.90
3842;DHT22;1936;47.074;15.336;2023-10-13T03:17:14;13.20;99.90
3842;DHT22;1936;47.074;15.336;2023-10-13T03:19:19;13.40;99.90
3842;DHT22;1936;47.074;15.336;2023-10-13T03:21:24;13.30;99.90
3842;DHT22;1936;47.074;15.336;2023-10-13T03:23:33;13.30;99.90
3842;DHT22;1936;47.074;15.336;2023-10-13T03:25:47;13.40;99.90
3842;DHT22;1936;47.074;15.336;2023-10-13T03:27:52;13.40;99.90
3842;DHT22;1936;47.074;15.336;2023-10-13T03:30:07;13.60;99.90
3842;DHT22;1936;47.074;15.336;2023-10-13T03:32:17;13.80;99.90
3842;DHT22;1936;47.074;15.336;2023-10-13T03:34:20;13.70;99.90
3842;DHT22;1936;47.074;15.336;2023-10-13T03:36:26;13.60;99.90
3842;DHT22;1936;47.074;15.336;2023-10-13T03:38:47;13.60;99.90
3842;DHT22;1936;47.074;15.336;2023-10-13T03:40:57;13.50;99.90
3842;DHT22;1936;47.074;15.336;2023-10-13T03:43:09;13.40;99.90
3842;DHT22;1936;47.074;15.336;2023-10-13T03:45:13;13.20;99.90
3842;DHT22;1936;47.074;15.336;2023-10-13T03:47:17;13.30;99.90
3842;DHT22;1936;47.074;15.336;2023-10-13T03:49:28;13.20;99.90
3842;DHT22;1936;47.074;15.336;2023-10-13T03:51:34;13.20;99.90
3842;DHT22;1936;47.074;15.336;2023-10-13T03:53:42;13.20;99.90
3842;DHT22;1936;47.074;15.336;2023-10-13T03:55:55;13.20;99.90
3842;DHT22;1936;47.074;15.336;2023-10-13T03:58:10;13.30;99.90
3842;DHT22;1936;47.074;15.336;2023-10-13T04:00:15;13.30;99.90
3842;DHT22;1936;47.074;15.336;2023-10-13T04:02:25;13.50;99.90
3842;DHT22;1936;47.074;15.336;2023-10-13T04:04:30;13.60;99.90
3842;DHT22;1936;47.074;15.336;2023-10-13T04:06:43;14.00;99.90
3842;DHT22;1936;47.074;15.336;2023-10-13T04:09:15;13.90;99.90
3842;DHT22;1936;47.074;15.336;2023-10-13T04:11:36;14.10;99.90
3842;DHT22;1936;47.074;15.336;2023-10-13T04:14:16;14.10;99.90
3842;DHT22;1936;47.074;15.336;2023-10-13T04:16:26;14.10;99.90
3842;DHT22;1936;47.074;15.336;2023-10-13T04:18:53;14.10;99.90
3842;DHT22;1936;47.074;15.336;2023-10-13T04:21:10;13.90;99.90
3842;DHT22;1936;47.074;15.336;2023-10-13T04:23:35;13.90;99.90
3842;DHT22;1936;47.074;15.336;2023-10-13T04:26:05;14.10;99.90
3842;DHT22;1936;47.074;15.336;2023-10-13T04:28:13;14.00;99.90
3842;DHT22;1936;47.074;15.336;2023-10-13T04:30:36;14.10;99.90
3842;DHT22;1936;47.074;15.336;2023-10-13T04:32:50;14.10;99.90
3842;DHT22;1936;47.074;15.336;2023-10-13T04:35:08;14.00;99.90
3842;DHT22;1936;47.074;15.336;2023-10-13T04:37:20;14.10;99.90
3842;DHT22;1936;47.074;15.336;2023-10-13T04:39:32;14.20;99.90
3842;DHT22;1936;47.074;15.336;2023-10-13T04:41:39;14.20;99.90
3842;DHT22;1936;47.074;15.336;2023-10-13T04:43:47;14.30;99.90
3842;DHT22;1936;47.074;15.336;2023-10-13T04:46:06;14.40;99.90
3842;DHT22;1936;47.074;15.336;2023-10-13T04:48:27;14.30;99.90
3842;DHT22;1936;47.074;15.336;2023-10-13T04:50:45;14.40;99.90
3842;DHT22;1936;47.074;15.336;2023-10-13T04:52:48;14.40;99.90
3842;DHT22;1936;47.074;15.336;2023-10-13T04:55:07;14.40;99.90
3842;DHT22;1936;47.074;15.336;2023-10-13T04:57:21;14.50;99.90
3842;DHT22;1936;47.074;15.336;2023-10-13T04:59:34;14.50;99.90
3842;DHT22;1936;47.074;15.336;2023-10-13T05:01:40;14.50;99.90
3842;DHT22;1936;47.074;15.336;2023-10-13T05:03:57;14.50;99.90
3842;DHT22;1936;47.074;15.336;2023-10-13T05:06:24;14.30;99.90
3842;DHT22;1936;47.074;15.336;2023-10-13T05:08:44;14.30;99.90
3842;DHT22;1936;47.074;15.336;2023-10-13T05:11:07;14.30;99.90
3842;DHT22;1936;47.074;15.336;2023-10-13T05:13:27;14.20;99.90
3842;DHT22;1936;47.074;15.336;2023-10-13T05:15:49;14.30;99.90
3842;DHT22;1936;47.074;15.336;2023-10-13T05:18:10;14.40;99.90
3842;DHT22;1936;47.074;15.336;2023-10-13T05:20:31;14.40;99.90
3842;DHT22;1936;47.074;15.336;2023-10-13T05:22:52;14.50;99.90
3842;DHT22;1936;47.074;15.336;2023-10-13T05:25:14;14.50;99.90
3842;DHT22;1936;47.074;15.336;2023-10-13T05:27:36;14.70;99.90
3842;DHT22;1936;47.074;15.336;2023-10-13T05:29:57;14.50;99.90
3842;DHT22;1936;47.074;15.336;2023-10-13T05:32:18;14.60;99.90
3842;DHT22;1936;47.074;15.336;2023-10-13T05:34:39;14.60;99.90
3842;DHT22;1936;47.074;15.336;2023-10-13T05:37:00;14.50;99.90
3842;DHT22;1936;47.074;15.336;2023-10-13T05:39:20;14.40;99.90
3842;DHT22;1936;47.074;15.336;2023-10-13T05:41:41;14.30;99.90
3842;DHT22;1936;47.074;15.336;2023-10-13T05:44:04;14.30;99.90
3842;DHT22;1936;47.074;15.336;2023-10-13T05:46:25;14.50;99.90
3842;DHT22;1936;47.074;15.336;2023-10-13T05:48:47;14.50;99.90
3842;DHT22;1936;47.074;15.336;2023-10-13T05:51:23;14.70;99.90
3842;DHT22;1936;47.074;15.336;2023-10-13T05:53:46;15.00;99.90
3842;DHT22;1936;47.074;15.336;2023-10-13T05:56:06;15.30;99.00
3842;DHT22;1936;47.074;15.336;2023-10-13T05:58:27;15.30;97.70
3842;DHT22;1936;47.074;15.336;2023-10-13T06:00:47;15.30;97.80
3842;DHT22;1936;47.074;15.336;2023-10-13T06:03:11;15.40;98.40
3842;DHT22;1936;47.074;15.336;2023-10-13T06:05:32;15.40;97.60
3842;DHT22;1936;47.074;15.336;2023-10-13T06:07:56;15.50;98.50
3842;DHT22;1936;47.074;15.336;2023-10-13T06:10:17;15.80;95.90
3842;DHT22;1936;47.074;15.336;2023-10-13T06:12:37;15.90;94.20
3842;DHT22;1936;47.074;15.336;2023-10-13T06:14:58;16.00;94.20
3842;DHT22;1936;47.074;15.336;2023-10-13T06:17:19;16.20;92.90
3842;DHT22;1936;47.074;15.336;2023-10-13T06:19:41;16.30;92.90
3842;DHT22;1936;47.074;15.336;2023-10-13T06:22:01;16.30;92.50
3842;DHT22;1936;47.074;15.336;2023-10-13T06:24:24;16.50;91.50
3842;DHT22;1936;47.074;15.336;2023-10-13T06:26:47;16.50;90.90
3842;DHT22;1936;47.074;15.336;2023-10-13T06:29:08;16.50;91.40
3842;DHT22;1936;47.074;15.336;2023-10-13T06:31:12;16.60;90.50
3842;DHT22;1936;47.074;15.336;2023-10-13T06:33:24;16.70;90.30
3842;DHT22;1936;47.074;15.336;2023-10-13T06:35:31;16.70;90.00
3842;DHT22;1936;47.074;15.336;2023-10-13T06:37:36;16.80;90.40
3842;DHT22;1936;47.074;15.336;2023-10-13T06:39:46;16.80;89.50
3842;DHT22;1936;47.074;15.336;2023-10-13T06:41:49;16.90;88.80
3842;DHT22;1936;47.074;15.336;2023-10-13T06:43:54;16.80;90.60
3842;DHT22;1936;47.074;15.336;2023-10-13T06:46:02;16.80;88.30
3842;DHT22;1936;47.074;15.336;2023-10-13T06:48:06;16.70;87.90
3842;DHT22;1936;47.074;15.336;2023-10-13T06:50:14;16.70;88.60
3842;DHT22;1936;47.074;15.336;2023-10-13T06:52:19;16.80;88.10
3842;DHT22;1936;47.074;15.336;2023-10-13T06:54:24;16.70;87.50
3842;DHT22;1936;47.074;15.336;2023-10-13T06:56:33;16.80;87.20
3842;DHT22;1936;47.074;15.336;2023-10-13T06:58:43;17.00;87.40
3842;DHT22;1936;47.074;15.336;2023-10-13T07:00:49;17.10;86.00
3842;DHT22;1936;47.074;15.336;2023-10-13T07:02:57;17.20;85.50
3842;DHT22;1936;47.074;15.336;2023-10-13T07:05:09;17.40;85.10
3842;DHT22;1936;47.074;15.336;2023-10-13T07:07:14;17.40;83.60
3842;DHT22;1936;47.074;15.336;2023-10-13T07:09:18;17.70;82.70
3842;DHT22;1936;47.074;15.336;2023-10-13T07:11:36;18.20;80.10
3842;DHT22;1936;47.074;15.336;2023-10-13T07:13:44;19.30;77.60
3842;DHT22;1936;47.074;15.336;2023-10-13T07:15:54;20.40;70.40
3842;DHT22;1936;47.074;15.336;2023-10-13T07:18:16;21.30;64.60
3842;DHT22;1936;47.074;15.336;2023-10-13T07:20:22;22.70;61.10
3842;DHT22;1936;47.074;15.336;2023-10-13T07:22:35;24.00;58.40
3842;DHT22;1936;47.074;15.336;2023-10-13T07:24:42;24.70;54.80
3842;DHT22;1936;47.074;15.336;2023-10-13T07:26:47;25.60;51.30
3842;DHT22;1936;47.074;15.336;2023-10-13T07:28:59;25.90;51.90
3842;DHT22;1936;47.074;15.336;2023-10-13T07:31:03;27.90;49.30
3842;DHT22;1936;47.074;15.336;2023-10-13T07:33:15;27.00;47.30
3842;DHT22;1936;47.074;15.336;2023-10-13T07:35:22;27.30;45.70
3842;DHT22;1936;47.074;15.336;2023-10-13T07:37:26;28.20;45.10
3842;DHT22;1936;47.074;15.336;2023-10-13T07:39:31;28.80;48.10
3842;DHT22;1936;47.074;15.336;2023-10-13T07:41:37;28.80;42.10
3842;DHT22;1936;47.074;15.336;2023-10-13T07:43:45;28.90;43.40
3842;DHT22;1936;47.074;15.336;2023-10-13T07:45:50;28.10;43.20
3842;DHT22;1936;47.074;15.336;2023-10-13T07:47:54;28.10;44.30
3842;DHT22;1936;47.074;15.336;2023-10-13T07:49:58;28.30;42.30
3842;DHT22;1936;47.074;15.336;2023-10-13T07:52:03;27.60;44.30
3842;DHT22;1936;47.074;15.336;2023-10-13T07:54:17;28.30;45.90
3842;DHT22;1936;47.074;15.336;2023-10-13T07:56:24;28.50;41.60
3842;DHT22;1936;47.074;15.336;2023-10-13T07:58:32;28.00;43.30
3842;DHT22;1936;47.074;15.336;2023-10-13T08:00:37;28.00;42.30
3842;DHT22;1936;47.074;15.336;2023-10-13T08:02:57;29.40;43.80
3842;DHT22;1936;47.074;15.336;2023-10-13T08:05:11;30.40;40.30
3842;DHT22;1936;47.074;15.336;2023-10-13T08:07:26;30.20;38.50
3842;DHT22;1936;47.074;15.336;2023-10-13T08:09:31;29.70;39.60
3842;DHT22;1936;47.074;15.336;2023-10-13T08:11:42;30.50;38.60
3842;DHT22;1936;47.074;15.336;2023-10-13T08:13:46;31.10;37.40
3842;DHT22;1936;47.074;15.336;2023-10-13T08:16:07;32.20;37.10
3842;DHT22;1936;47.074;15.336;2023-10-13T08:18:11;31.90;36.80
3842;DHT22;1936;47.074;15.336;2023-10-13T08:20:20;32.20;35.30
3842;DHT22;1936;47.074;15.336;2023-10-13T08:22:24;32.60;37.80
3842;DHT22;1936;47.074;15.336;2023-10-13T08:24:27;33.50;34.50
3842;DHT22;1936;47.074;15.336;2023-10-13T08:26:52;32.90;35.30
3842;DHT22;1936;47.074;15.336;2023-10-13T08:29:17;33.70;34.50
3842;DHT22;1936;47.074;15.336;2023-10-13T08:31:39;33.60;32.80
3842;DHT22;1936;47.074;15.336;2023-10-13T08:33:44;33.50;32.20
3842;DHT22;1936;47.074;15.336;2023-10-13T08:35:48;32.10;34.80
3842;DHT22;1936;47.074;15.336;2023-10-13T08:38:07;33.90;35.40
3842;DHT22;1936;47.074;15.336;2023-10-13T08:40:31;34.00;33.20
3842;DHT22;1936;47.074;15.336;2023-10-13T08:42:51;33.10;31.50
3842;DHT22;1936;47.074;15.336;2023-10-13T08:45:14;34.80;33.70
3842;DHT22;1936;47.074;15.336;2023-10-13T08:47:48;36.30;32.10
3842;DHT22;1936;47.074;15.336;2023-10-13T08:49:56;36.60;31.70
3842;DHT22;1936;47.074;15.336;2023-10-13T08:52:14;36.60;31.10
3842;DHT22;1936;47.074;15.336;2023-10-13T08:54:48;37.00;31.60
3842;DHT22;1936;47.074;15.336;2023-10-13T08:57:04;37.30;30.60
3842;DHT22;1936;47.074;15.336;2023-10-13T08:59:35;36.90;31.40
3842;DHT22;1936;47.074;15.336;2023-10-13T09:01:41;37.00;33.10
3842;DHT22;1936;47.074;15.336;2023-10-13T09:03:55;37.30;33.30
3842;DHT22;1936;47.074;15.336;2023-10-13T09:06:19;37.80;31.70
3842;DHT22;1936;47.074;15.336;2023-10-13T09:08:25;37.70;31.20
3842;DHT22;1936;47.074;15.336;2023-10-13T09:10:37;38.60;31.50
3842;DHT22;1936;47.074;15.336;2023-10-13T09:12:54;38.50;30.20
3842;DHT22;1936;47.074;15.336;2023-10-13T09:15:04;38.80;30.70
3842;DHT22;1936;47.074;15.336;2023-10-13T09:17:19;38.80;31.60
3842;DHT22;1936;47.074;15.336;2023-10-13T09:19:48;37.50;30.30
3842;DHT22;1936;47.074;15.336;2023-10-13T09:21:58;36.40;29.70
3842;DHT22;1936;47.074;15.336;2023-10-13T09:24:00;36.30;30.00
3842;DHT22;1936;47.074;15.336;2023-10-13T09:26:17;35.20;30.00
3842;DHT22;1936;47.074;15.336;2023-10-13T09:28:21;34.40;30.30
3842;DHT22;1936;47.074;15.336;2023-10-13T09:30:24;34.60;30.10
3842;DHT22;1936;47.074;15.336;2023-10-13T09:32:30;34.60;30.90
3842;DHT22;1936;47.074;15.336;2023-10-13T09:34:33;35.40;31.80
3842;DHT22;1936;47.074;15.336;2023-10-13T09:36:44;35.60;30.30
3842;DHT22;1936;47.074;15.336;2023-10-13T09:38:49;36.10;30.00
3842;DHT22;1936;47.074;15.336;2023-10-13T09:41:13;36.10;30.70
3842;DHT22;1936;47.074;15.336;2023-10-13T09:43:20;36.40;29.20
3842;DHT22;1936;47.074;15.336;2023-10-13T09:45:29;38.20;28.10
3842;DHT22;1936;47.074;15.336;2023-10-13T09:47:36;39.10;28.00
3842;DHT22;1936;47.074;15.336;2023-10-13T09:49:44;39.40;27.50
3842;DHT22;1936;47.074;15.336;2023-10-13T09:51:49;39.40;27.10
3842;DHT22;1936;47.074;15.336;2023-10-13T09:54:05;39.60;27.40
3842;DHT22;1936;47.074;15.336;2023-10-13T09:56:35;40.40;27.00
3842;DHT22;1936;47.074;15.336;2023-10-13T09:59:00;39.80;27.60
3842;DHT22;1936;47.074;15.336;2023-10-13T10:01:10;40.30;25.80
3842;DHT22;1936;47.074;15.336;2023-10-13T10:03:14;40.40;27.40
3842;DHT22;1936;47.074;15.336;2023-10-13T10:05:24;38.90;28.30
3842;DHT22;1936;47.074;15.336;2023-10-13T10:07:29;38.90;29.20
3842;DHT22;1936;47.074;15.336;2023-10-13T10:09:33;38.30;33.10
3842;DHT22;1936;47.074;15.336;2023-10-13T10:12:01;39.10;29.60
3842;DHT22;1936;47.074;15.336;2023-10-13T10:14:10;38.90;28.70
3842;DHT22;1936;47.074;15.336;2023-10-13T10:16:27;40.10;28.20
3842;DHT22;1936;47.074;15.336;2023-10-13T10:18:32;40.10;29.20
3842;DHT22;1936;47.074;15.336;2023-10-13T10:20:36;40.10;30.70
3842;DHT22;1936;47.074;15.336;2023-10-13T10:22:55;39.20;30.20
3842;DHT22;1936;47.074;15.336;2023-10-13T10:25:01;39.60;29.30
3842;DHT22;1936;47.074;15.336;2023-10-13T10:27:05;39.50;27.90
3842;DHT22;1936;47.074;15.336;2023-10-13T10:29:11;39.30;28.30
3842;DHT22;1936;47.074;15.336;2023-10-13T10:31:16;38.80;30.60
3842;DHT22;1936;47.074;15.336;2023-10-13T10:33:30;39.50;31.70
3842;DHT22;1936;47.074;15.336;2023-10-13T10:35:36;40.00;29.30
3842;DHT22;1936;47.074;15.336;2023-10-13T10:37:40;40.10;27.90
3842;DHT22;1936;47.074;15.336;2023-10-13T10:39:54;39.70;31.00
3842;DHT22;1936;47.074;15.336;2023-10-13T10:42:08;39.80;28.80
3842;DHT22;1936;47.074;15.336;2023-10-13T10:44:17;39.80;30.50
3842;DHT22;1936;47.074;15.336;2023-10-13T10:46:28;40.40;28.00
3842;DHT22;1936;47.074;15.336;2023-10-13T10:48:40;39.20;28.80
3842;DHT22;1936;47.074;15.336;2023-10-13T10:50:51;40.10;29.30
3842;DHT22;1936;47.074;15.336;2023-10-13T10:52:56;40.00;28.00
3842;DHT22;1936;47.074;15.336;2023-10-13T10:55:01;39.10;29.60
3842;DHT22;1936;47.074;15.336;2023-10-13T10:57:08;38.80;30.50
3842;DHT22;1936;47.074;15.336;2023-10-13T10:59:19;38.20;28.70
3842;DHT22;1936;47.074;15.336;2023-10-13T11:01:28;38.70;31.70
3842;DHT22;1936;47.074;15.336;2023-10-13T11:03:40;38.10;29.20
3842;DHT22;1936;47.074;15.336;2023-10-13T11:05:45;37.50;32.40
3842;DHT22;1936;47.074;15.336;2023-10-13T11:07:47;36.40;33.30
3842;DHT22;1936;47.074;15.336;2023-10-13T11:09:53;36.20;34.20
3842;DHT22;1936;47.074;15.336;2023-10-13T11:12:12;35.90;34.30
3842;DHT22;1936;47.074;15.336;2023-10-13T11:14:27;35.80;34.20
3842;DHT22;1936;47.074;15.336;2023-10-13T11:16:29;36.90;30.10
3842;DHT22;1936;47.074;15.336;2023-10-13T11:18:36;37.30;30.40
3842;DHT22;1936;47.074;15.336;2023-10-13T11:20:43;37.90;29.10
3842;DHT22;1936;47.074;15.336;2023-10-13T11:22:46;38.10;28.90
3842;DHT22;1936;47.074;15.336;2023-10-13T11:24:50;38.20;30.10
3842;DHT22;1936;47.074;15.336;2023-10-13T11:26:56;38.20;28.60
3842;DHT22;1936;47.074;15.336;2023-10-13T11:29:03;38.20;27.90
3842;DHT22;1936;47.074;15.336;2023-10-13T11:31:12;37.80;28.90
3842;DHT22;1936;47.074;15.336;2023-10-13T11:33:22;37.90;29.40
3842;DHT22;1936;47.074;15.336;2023-10-13T11:35:26;38.60;29.00
3842;DHT22;1936;47.074;15.336;2023-10-13T11:37:51;38.70;30.20
3842;DHT22;1936;47.074;15.336;2023-10-13T11:39:58;38.30;27.90
3842;DHT22;1936;47.074;15.336;2023-10-13T11:42:02;38.90;28.90
3842;DHT22;1936;47.074;15.336;2023-10-13T11:44:14;38.20;28.20
3842;DHT22;1936;47.074;15.336;2023-10-13T11:46:26;38.70;28.80
3842;DHT22;1936;47.074;15.336;2023-10-13T11:48:59;38.40;29.00
3842;DHT22;1936;47.074;15.336;2023-10-13T11:51:08;37.50;30.00
3842;DHT22;1936;47.074;15.336;2023-10-13T11:53:19;37.60;29.20
3842;DHT22;1936;47.074;15.336;2023-10-13T11:55:22;37.60;33.70
3842;DHT22;1936;47.074;15.336;2023-10-13T11:57:26;36.60;31.80
3842;DHT22;1936;47.074;15.336;2023-10-13T11:59:31;36.60;28.20
3842;DHT22;1936;47.074;15.336;2023-10-13T12:01:33;36.80;31.60
3842;DHT22;1936;47.074;15.336;2023-10-13T12:03:51;36.40;33.00
3842;DHT22;1936;47.074;15.336;2023-10-13T12:06:12;36.00;30.60
3842;DHT22;1936;47.074;15.336;2023-10-13T12:08:34;37.10;29.70
3842;DHT22;1936;47.074;15.336;2023-10-13T12:10:40;37.00;30.00
3842;DHT22;1936;47.074;15.336;2023-10-13T12:12:51;37.40;29.40
3842;DHT22;1936;47.074;15.336;2023-10-13T12:14:57;37.40;30.70
3842;DHT22;1936;47.074;15.336;2023-10-13T12:17:11;36.50;29.90
3842;DHT22;1936;47.074;15.336;2023-10-13T12:19:20;37.10;32.00
3842;DHT22;1936;47.074;15.336;2023-10-13T12:21:26;37.70;29.00
3842;DHT22;1936;47.074;15.336;2023-10-13T12:23:31;37.40;29.60
3842;DHT22;1936;47.074;15.336;2023-10-13T12:25:37;36.90;28.80
3842;DHT22;1936;47.074;15.336;2023-10-13T12:27:57;36.70;30.00
3842;DHT22;1936;47.074;15.336;2023-10-13T12:30:11;36.40;29.70
3842;DHT22;1936;47.074;15.336;2023-10-13T12:32:19;36.40;29.50
3842;DHT22;1936;47.074;15.336;2023-10-13T12:34:26;36.10;29.50
3842;DHT22;1936;47.074;15.336;2023-10-13T12:36:48;35.70;30.50
3842;DHT22;1936;47.074;15.336;2023-10-13T12:39:08;36.40;31.00
3842;DHT22;1936;47.074;15.336;2023-10-13T12:41:28;36.40;29.70
3842;DHT22;1936;47.074;15.336;2023-10-13T12:43:49;35.30;30.00
3842;DHT22;1936;47.074;15.336;2023-10-13T12:46:12;35.80;31.20
3842;DHT22;1936;47.074;15.336;2023-10-13T12:48:34;36.10;33.10
3842;DHT22;1936;47.074;15.336;2023-10-13T12:51:00;36.10;31.80
3842;DHT22;1936;47.074;15.336;2023-10-13T12:53:21;35.80;30.10
3842;DHT22;1936;47.074;15.336;2023-10-13T12:55:25;35.70;30.80
3842;DHT22;1936;47.074;15.336;2023-10-13T12:57:29;36.00;31.10
3842;DHT22;1936;47.074;15.336;2023-10-13T12:59:32;35.90;30.20
3842;DHT22;1936;47.074;15.336;2023-10-13T13:01:37;35.90;31.30
3842;DHT22;1936;47.074;15.336;2023-10-13T13:03:44;36.30;32.70
3842;DHT22;1936;47.074;15.336;2023-10-13T13:05:48;36.20;29.80
3842;DHT22;1936;47.074;15.336;2023-10-13T13:07:51;35.90;31.20
3842;DHT22;1936;47.074;15.336;2023-10-13T13:09:57;35.30;30.00
3842;DHT22;1936;47.074;15.336;2023-10-13T13:12:02;35.10;31.80
3842;DHT22;1936;47.074;15.336;2023-10-13T13:14:08;34.80;31.40
3842;DHT22;1936;47.074;15.336;2023-10-13T13:16:12;34.50;32.90
3842;DHT22;1936;47.074;15.336;2023-10-13T13:18:17;35.10;32.00
3842;DHT22;1936;47.074;15.336;2023-10-13T13:20:21;34.80;33.10
3842;DHT22;1936;47.074;15.336;2023-10-13T13:22:30;34.40;33.20
3842;DHT22;1936;47.074;15.336;2023-10-13T13:24:34;33.90;31.20
3842;DHT22;1936;47.074;15.336;2023-10-13T13:26:46;34.00;32.40
3842;DHT22;1936;47.074;15.336;2023-10-13T13:28:50;34.00;33.80
3842;DHT22;1936;47.074;15.336;2023-10-13T13:30:54;33.20;34.60
3842;DHT22;1936;47.074;15.336;2023-10-13T13:32:57;33.50;36.80
3842;DHT22;1936;47.074;15.336;2023-10-13T13:35:07;33.60;34.00
3842;DHT22;1936;47.074;15.336;2023-10-13T13:37:15;33.60;30.20
3842;DHT22;1936;47.074;15.336;2023-10-13T13:39:18;33.50;31.00
3842;DHT22;1936;47.074;15.336;2023-10-13T13:41:30;33.40;34.40
3842;DHT22;1936;47.074;15.336;2023-10-13T13:43:35;32.70;33.00
3842;DHT22;1936;47.074;15.336;2023-10-13T13:45:44;33.00;32.50
3842;DHT22;1936;47.074;15.336;2023-10-13T13:47:48;33.10;36.50
3842;DHT22;1936;47.074;15.336;2023-10-13T13:49:55;32.90;35.50
3842;DHT22;1936;47.074;15.336;2023-10-13T13:52:00;32.90;34.40
3842;DHT22;1936;47.074;15.336;2023-10-13T13:54:06;32.30;32.90
3842;DHT22;1936;47.074;15.336;2023-10-13T13:56:10;32.20;36.10
3842;DHT22;1936;47.074;15.336;2023-10-13T13:58:18;32.30;38.60